Impacts TAF Board
For situational awareness. Not to be used for flight planning purposes.
IDs:

KCLE - Cleveland/Hopkins In, OH, US

Issued at 2057 UTC 21 Sep 2021
Updated at 2316 UTC 21 Sep 2021
Potential Impact None Slight Moderate High
Time2307Z 22/00Z 22/01Z 22/02Z 22/03Z 22/04Z 22/05Z 22/06Z 22/07Z 22/08Z 22/09Z 22/10Z 22/11Z 22/12Z>>
Type OBS PRVL PRVL PRVL PRVL PRVL PRVL PRVL PRVL PRVL PRVL PRVL PRVL PRVL
VIS 5 >6 >6 >6 >6 >6 >6 >6 >6 >6 >6 >6 5 5
CIG 31 20 20 20 20 20 20 20 20 8 8 8 8 8
Cover OVC OVC OVC OVC OVC OVC OVC OVC OVC OVC OVC OVC OVC OVC
FltCat MVFR MVFR MVFR MVFR MVFR MVFR MVFR MVFR MVFR IFR IFR IFR IFR IFR
WX -RA BR -SHRA -SHRA -SHRA -SHRA -SHRA -SHRA -SHRA -SHRA -SHRA -SHRA -SHRA -RA -RA
WDir 170 170 170 170 170 170 170 170 170 130 130 130 VRB VRB
WSpd 8 11 11 11 11 11 11 11 11 10 10 10 5 5
WGst -- -- -- -- -- -- -- -- -- -- -- -- -- --
Raw TAF
KCLE 212057Z 2121/2224 19011G20KT P6SM BKN017 OVC027
  FM220000 17011KT P6SM -SHRA SCT008 OVC020
  FM220800 13010KT P6SM -SHRA OVC008
  FM221100 VRB05KT 5SM -RA OVC008
  FM221900 04015KT 3SM RA SCT008 OVC015


Raw METAR
KCLE 212307Z 17008KT 5SM -RA BR SCT010 BKN031 OVC060 21/18 A3005 RMK AO2 P0001 T02060183
KCLE 212251Z 17007KT 7SM -RA BKN010 OVC018 21/19 A3005 RMK AO2 SLP188 P0002 T02060189
KCLE 212215Z 18006KT 3SM -RA BR BKN009 BKN014 OVC020 21/19 A3006 RMK AO2 SFC VIS 6 P0000 T02060189
KCLE 212207Z 18008KT 8SM -RA FEW009 BKN017 OVC021 21/19 A3006 RMK AO2 P0000 T02060189
KCLE 212151Z 18007KT 7SM -RA OVC018 21/18 A3006 RMK AO2 DZB12E34RAB47 SLP190 P0000 T02110183
KCLE 212051Z 19010G19KT 10SM BKN018 OVC027 22/18 A3006 RMK AO2 SLP190 T02220178 56006

METAR Board
Radar Display
Forecast Discussion
For situational awareness. Not to be used for flight planning purposes.